Terminal Aerodrome Forecast
Issued by NWS Greer, SC

Home | Current Version | Previous Version | Text Only | Print | Product List | Glossary On
Versions: 1 2 3 4 5 6 7 8 9 10 11 12 13 14 15 16 17 18 19 20 21 22 23 24 25
000
FTUS42 KGSP 212157 AAB
TAFAVL
TAF AMD
KAVL 212157Z 2122/2218 VRB04KT P6SM VCSH SCT008 BKN025
     FM212330 33004KT P6SM OVC008
     FM220100 00000KT 4SM BR VCSH OVC008
     FM220400 00000KT 1 1/2SM BR OVC008
     FM221200 12006KT 1SM -SHRA BR OVC003 WS020/17035KT=

USA.gov is the U.S. government's official web portal to all federal, state and local government web resources and services.